sensor_id;sensor_type;location;lat;lon;timestamp;temperature;humidity
18177;DHT22;9213;50.858;3.964;2023-07-22T00:00:45;20.50;45.10
18177;DHT22;9213;50.858;3.964;2023-07-22T00:03:12;20.50;45.20
18177;DHT22;9213;50.858;3.964;2023-07-22T00:05:40;20.40;45.50
18177;DHT22;9213;50.858;3.964;2023-07-22T00:08:08;20.40;45.60
18177;DHT22;9213;50.858;3.964;2023-07-22T00:10:35;20.40;45.70
18177;DHT22;9213;50.858;3.964;2023-07-22T00:13:02;20.40;45.70
18177;DHT22;9213;50.858;3.964;2023-07-22T00:15:29;20.40;45.70
18177;DHT22;9213;50.858;3.964;2023-07-22T00:17:56;20.30;45.80
18177;DHT22;9213;50.858;3.964;2023-07-22T00:20:23;20.30;45.80
18177;DHT22;9213;50.858;3.964;2023-07-22T00:22:51;20.30;45.90
18177;DHT22;9213;50.858;3.964;2023-07-22T00:25:19;20.30;46.10
18177;DHT22;9213;50.858;3.964;2023-07-22T00:27:47;20.30;46.20
18177;DHT22;9213;50.858;3.964;2023-07-22T00:30:14;20.30;46.20
18177;DHT22;9213;50.858;3.964;2023-07-22T00:32:41;20.20;46.20
18177;DHT22;9213;50.858;3.964;2023-07-22T00:35:09;20.20;46.30
18177;DHT22;9213;50.858;3.964;2023-07-22T00:37:36;20.20;46.30
18177;DHT22;9213;50.858;3.964;2023-07-22T00:40:03;20.20;46.40
18177;DHT22;9213;50.858;3.964;2023-07-22T00:42:33;20.10;46.60
18177;DHT22;9213;50.858;3.964;2023-07-22T00:45:00;20.10;46.70
18177;DHT22;9213;50.858;3.964;2023-07-22T00:47:27;20.00;46.80
18177;DHT22;9213;50.858;3.964;2023-07-22T00:49:54;20.00;46.90
18177;DHT22;9213;50.858;3.964;2023-07-22T00:52:22;20.00;47.00
18177;DHT22;9213;50.858;3.964;2023-07-22T00:54:49;20.00;47.10
18177;DHT22;9213;50.858;3.964;2023-07-22T00:57:16;20.00;47.00
18177;DHT22;9213;50.858;3.964;2023-07-22T00:59:45;20.00;46.90
18177;DHT22;9213;50.858;3.964;2023-07-22T01:02:12;19.90;47.10
18177;DHT22;9213;50.858;3.964;2023-07-22T01:04:39;19.90;47.10
18177;DHT22;9213;50.858;3.964;2023-07-22T01:07:06;19.90;47.20
18177;DHT22;9213;50.858;3.964;2023-07-22T01:09:35;19.80;47.30
18177;DHT22;9213;50.858;3.964;2023-07-22T01:12:02;19.80;47.40
18177;DHT22;9213;50.858;3.964;2023-07-22T01:14:32;19.80;47.50
18177;DHT22;9213;50.858;3.964;2023-07-22T01:17:01;19.80;47.50
18177;DHT22;9213;50.858;3.964;2023-07-22T01:19:28;19.80;47.60
18177;DHT22;9213;50.858;3.964;2023-07-22T01:21:56;19.80;47.60
18177;DHT22;9213;50.858;3.964;2023-07-22T01:24:25;19.80;47.70
18177;DHT22;9213;50.858;3.964;2023-07-22T01:26:52;19.80;47.70
18177;DHT22;9213;50.858;3.964;2023-07-22T01:29:19;19.70;47.70
18177;DHT22;9213;50.858;3.964;2023-07-22T01:31:49;19.70;47.90
18177;DHT22;9213;50.858;3.964;2023-07-22T01:34:16;19.70;48.00
18177;DHT22;9213;50.858;3.964;2023-07-22T01:36:44;19.70;48.10
18177;DHT22;9213;50.858;3.964;2023-07-22T01:39:11;19.70;48.20
18177;DHT22;9213;50.858;3.964;2023-07-22T01:41:39;19.70;48.40
18177;DHT22;9213;50.858;3.964;2023-07-22T01:44:06;19.70;48.60
18177;DHT22;9213;50.858;3.964;2023-07-22T01:46:34;19.70;49.30
18177;DHT22;9213;50.858;3.964;2023-07-22T01:49:01;19.60;48.70
18177;DHT22;9213;50.858;3.964;2023-07-22T01:51:28;19.60;48.70
18177;DHT22;9213;50.858;3.964;2023-07-22T01:53:55;19.50;48.80
18177;DHT22;9213;50.858;3.964;2023-07-22T01:56:23;19.60;48.90
18177;DHT22;9213;50.858;3.964;2023-07-22T01:58:51;19.60;49.00
18177;DHT22;9213;50.858;3.964;2023-07-22T02:01:18;19.50;49.20
18177;DHT22;9213;50.858;3.964;2023-07-22T02:03:45;19.50;49.20
18177;DHT22;9213;50.858;3.964;2023-07-22T02:06:13;19.50;49.40
18177;DHT22;9213;50.858;3.964;2023-07-22T02:08:39;19.40;49.30
18177;DHT22;9213;50.858;3.964;2023-07-22T02:11:07;19.40;49.30
18177;DHT22;9213;50.858;3.964;2023-07-22T02:13:35;19.40;49.50
18177;DHT22;9213;50.858;3.964;2023-07-22T02:16:04;19.30;49.70
18177;DHT22;9213;50.858;3.964;2023-07-22T02:18:31;19.30;49.90
18177;DHT22;9213;50.858;3.964;2023-07-22T02:20:58;19.30;50.10
18177;DHT22;9213;50.858;3.964;2023-07-22T02:23:25;19.30;50.10
18177;DHT22;9213;50.858;3.964;2023-07-22T02:25:52;19.30;50.10
18177;DHT22;9213;50.858;3.964;2023-07-22T02:28:20;19.20;50.10
18177;DHT22;9213;50.858;3.964;2023-07-22T02:30:49;19.20;50.20
18177;DHT22;9213;50.858;3.964;2023-07-22T02:33:20;19.30;50.30
18177;DHT22;9213;50.858;3.964;2023-07-22T02:35:47;19.20;50.30
18177;DHT22;9213;50.858;3.964;2023-07-22T02:38:14;19.30;50.30
18177;DHT22;9213;50.858;3.964;2023-07-22T02:40:42;19.30;50.30
18177;DHT22;9213;50.858;3.964;2023-07-22T02:43:09;19.30;50.30
18177;DHT22;9213;50.858;3.964;2023-07-22T02:45:36;19.30;50.20
18177;DHT22;9213;50.858;3.964;2023-07-22T02:48:03;19.20;50.20
18177;DHT22;9213;50.858;3.964;2023-07-22T02:50:32;19.20;50.30
18177;DHT22;9213;50.858;3.964;2023-07-22T02:52:59;19.20;50.40
18177;DHT22;9213;50.858;3.964;2023-07-22T02:55:26;19.10;50.60
18177;DHT22;9213;50.858;3.964;2023-07-22T02:57:53;19.10;50.70
18177;DHT22;9213;50.858;3.964;2023-07-22T03:00:20;19.10;50.70
18177;DHT22;9213;50.858;3.964;2023-07-22T03:02:50;19.10;50.80
18177;DHT22;9213;50.858;3.964;2023-07-22T03:05:18;19.10;50.90
18177;DHT22;9213;50.858;3.964;2023-07-22T03:07:47;19.10;50.80
18177;DHT22;9213;50.858;3.964;2023-07-22T03:10:14;19.20;50.80
18177;DHT22;9213;50.858;3.964;2023-07-22T03:12:40;19.10;50.80
18177;DHT22;9213;50.858;3.964;2023-07-22T03:15:08;19.20;50.90
18177;DHT22;9213;50.858;3.964;2023-07-22T03:17:35;19.10;51.00
18177;DHT22;9213;50.858;3.964;2023-07-22T03:20:03;19.10;51.00
18177;DHT22;9213;50.858;3.964;2023-07-22T03:22:39;19.10;51.10
18177;DHT22;9213;50.858;3.964;2023-07-22T03:25:08;19.10;51.10
18177;DHT22;9213;50.858;3.964;2023-07-22T03:27:36;19.10;51.20
18177;DHT22;9213;50.858;3.964;2023-07-22T03:30:04;19.00;51.20
18177;DHT22;9213;50.858;3.964;2023-07-22T03:32:33;19.00;51.30
18177;DHT22;9213;50.858;3.964;2023-07-22T03:35:00;19.00;51.50
18177;DHT22;9213;50.858;3.964;2023-07-22T03:37:28;18.90;51.60
18177;DHT22;9213;50.858;3.964;2023-07-22T03:39:55;19.00;51.70
18177;DHT22;9213;50.858;3.964;2023-07-22T03:42:24;18.90;51.90
18177;DHT22;9213;50.858;3.964;2023-07-22T03:44:50;18.90;52.00
18177;DHT22;9213;50.858;3.964;2023-07-22T03:47:18;18.90;52.10
18177;DHT22;9213;50.858;3.964;2023-07-22T03:49:45;18.90;52.00
18177;DHT22;9213;50.858;3.964;2023-07-22T03:52:12;18.90;52.10
18177;DHT22;9213;50.858;3.964;2023-07-22T03:54:39;18.90;52.20
18177;DHT22;9213;50.858;3.964;2023-07-22T03:57:06;18.80;52.20
18177;DHT22;9213;50.858;3.964;2023-07-22T03:59:35;18.90;53.10
18177;DHT22;9213;50.858;3.964;2023-07-22T04:02:02;18.90;52.40
18177;DHT22;9213;50.858;3.964;2023-07-22T04:04:29;18.90;52.40
18177;DHT22;9213;50.858;3.964;2023-07-22T04:06:56;18.80;52.40
18177;DHT22;9213;50.858;3.964;2023-07-22T04:09:23;18.80;52.40
18177;DHT22;9213;50.858;3.964;2023-07-22T04:11:49;18.80;52.60
18177;DHT22;9213;50.858;3.964;2023-07-22T04:14:16;18.80;52.60
18177;DHT22;9213;50.858;3.964;2023-07-22T04:16:45;18.80;52.70
18177;DHT22;9213;50.858;3.964;2023-07-22T04:19:12;18.70;52.80
18177;DHT22;9213;50.858;3.964;2023-07-22T04:21:39;18.70;52.80
18177;DHT22;9213;50.858;3.964;2023-07-22T04:24:05;18.70;52.90
18177;DHT22;9213;50.858;3.964;2023-07-22T04:26:32;18.70;53.00
18177;DHT22;9213;50.858;3.964;2023-07-22T04:28:59;18.70;53.00
18177;DHT22;9213;50.858;3.964;2023-07-22T04:31:26;18.70;53.00
18177;DHT22;9213;50.858;3.964;2023-07-22T04:33:55;18.70;53.10
18177;DHT22;9213;50.858;3.964;2023-07-22T04:36:22;18.70;53.20
18177;DHT22;9213;50.858;3.964;2023-07-22T04:38:48;18.70;53.20
18177;DHT22;9213;50.858;3.964;2023-07-22T04:41:15;18.70;53.10
18177;DHT22;9213;50.858;3.964;2023-07-22T04:43:42;18.70;53.20
18177;DHT22;9213;50.858;3.964;2023-07-22T04:46:09;18.80;53.10
18177;DHT22;9213;50.858;3.964;2023-07-22T04:48:36;18.80;53.20
18177;DHT22;9213;50.858;3.964;2023-07-22T04:51:04;18.80;53.00
18177;DHT22;9213;50.858;3.964;2023-07-22T04:53:31;18.70;53.00
18177;DHT22;9213;50.858;3.964;2023-07-22T04:55:58;18.70;52.90
18177;DHT22;9213;50.858;3.964;2023-07-22T04:58:25;18.70;53.10
18177;DHT22;9213;50.858;3.964;2023-07-22T05:00:52;18.70;53.20
18177;DHT22;9213;50.858;3.964;2023-07-22T05:03:20;18.60;53.30
18177;DHT22;9213;50.858;3.964;2023-07-22T05:05:46;18.60;53.40
18177;DHT22;9213;50.858;3.964;2023-07-22T05:08:15;18.60;53.60
18177;DHT22;9213;50.858;3.964;2023-07-22T05:10:42;18.60;53.80
18177;DHT22;9213;50.858;3.964;2023-07-22T05:13:08;18.60;53.80
18177;DHT22;9213;50.858;3.964;2023-07-22T05:15:35;18.70;54.00
18177;DHT22;9213;50.858;3.964;2023-07-22T05:18:02;18.70;53.90
18177;DHT22;9213;50.858;3.964;2023-07-22T05:20:29;18.80;53.80
18177;DHT22;9213;50.858;3.964;2023-07-22T05:22:56;18.90;53.70
18177;DHT22;9213;50.858;3.964;2023-07-22T05:25:24;18.90;53.70
18177;DHT22;9213;50.858;3.964;2023-07-22T05:27:51;19.10;53.50
18177;DHT22;9213;50.858;3.964;2023-07-22T05:30:18;19.20;53.30
18177;DHT22;9213;50.858;3.964;2023-07-22T05:32:45;19.30;53.00
18177;DHT22;9213;50.858;3.964;2023-07-22T05:35:12;19.40;52.60
18177;DHT22;9213;50.858;3.964;2023-07-22T05:37:39;19.60;52.40
18177;DHT22;9213;50.858;3.964;2023-07-22T05:40:07;19.70;52.10
18177;DHT22;9213;50.858;3.964;2023-07-22T05:42:36;19.90;51.90
18177;DHT22;9213;50.858;3.964;2023-07-22T05:45:04;20.00;51.40
18177;DHT22;9213;50.858;3.964;2023-07-22T05:47:31;20.00;50.90
18177;DHT22;9213;50.858;3.964;2023-07-22T05:49:57;20.10;50.80
18177;DHT22;9213;50.858;3.964;2023-07-22T05:52:24;20.10;50.70
18177;DHT22;9213;50.858;3.964;2023-07-22T05:54:51;20.20;50.60
18177;DHT22;9213;50.858;3.964;2023-07-22T05:57:18;20.20;50.60
18177;DHT22;9213;50.858;3.964;2023-07-22T05:59:46;20.20;50.40
18177;DHT22;9213;50.858;3.964;2023-07-22T06:02:13;20.20;50.40
18177;DHT22;9213;50.858;3.964;2023-07-22T06:04:40;20.20;50.40
18177;DHT22;9213;50.858;3.964;2023-07-22T06:07:07;20.30;50.40
18177;DHT22;9213;50.858;3.964;2023-07-22T06:09:34;20.30;50.50
18177;DHT22;9213;50.858;3.964;2023-07-22T06:12:01;20.40;50.10
18177;DHT22;9213;50.858;3.964;2023-07-22T06:14:28;20.40;50.00
18177;DHT22;9213;50.858;3.964;2023-07-22T06:16:57;20.50;49.80
18177;DHT22;9213;50.858;3.964;2023-07-22T06:19:24;20.60;49.60
18177;DHT22;9213;50.858;3.964;2023-07-22T06:21:51;20.70;50.20
18177;DHT22;9213;50.858;3.964;2023-07-22T06:24:18;20.70;49.20
18177;DHT22;9213;50.858;3.964;2023-07-22T06:26:44;20.70;49.30
18177;DHT22;9213;50.858;3.964;2023-07-22T06:29:11;20.70;49.20
18177;DHT22;9213;50.858;3.964;2023-07-22T06:31:38;20.70;49.20
18177;DHT22;9213;50.858;3.964;2023-07-22T06:34:07;20.80;49.40
18177;DHT22;9213;50.858;3.964;2023-07-22T06:36:33;20.80;49.30
18177;DHT22;9213;50.858;3.964;2023-07-22T06:39:00;20.80;49.20
18177;DHT22;9213;50.858;3.964;2023-07-22T06:41:27;20.80;49.40
18177;DHT22;9213;50.858;3.964;2023-07-22T06:43:54;20.80;49.20
18177;DHT22;9213;50.858;3.964;2023-07-22T06:46:22;20.90;49.50
18177;DHT22;9213;50.858;3.964;2023-07-22T06:48:48;20.90;49.40
18177;DHT22;9213;50.858;3.964;2023-07-22T06:51:17;21.10;49.50
18177;DHT22;9213;50.858;3.964;2023-07-22T06:53:43;21.20;49.20
18177;DHT22;9213;50.858;3.964;2023-07-22T06:56:11;21.50;48.90
18177;DHT22;9213;50.858;3.964;2023-07-22T06:58:38;21.80;48.10
18177;DHT22;9213;50.858;3.964;2023-07-22T07:01:05;22.10;47.90
18177;DHT22;9213;50.858;3.964;2023-07-22T07:03:32;22.50;47.00
18177;DHT22;9213;50.858;3.964;2023-07-22T07:05:59;22.80;45.80
18177;DHT22;9213;50.858;3.964;2023-07-22T07:08:28;23.10;45.00
18177;DHT22;9213;50.858;3.964;2023-07-22T07:10:55;23.30;44.10
18177;DHT22;9213;50.858;3.964;2023-07-22T07:13:22;23.30;43.90
18177;DHT22;9213;50.858;3.964;2023-07-22T07:15:49;23.30;44.00
18177;DHT22;9213;50.858;3.964;2023-07-22T07:18:16;23.20;43.70
18177;DHT22;9213;50.858;3.964;2023-07-22T07:20:43;23.20;44.00
18177;DHT22;9213;50.858;3.964;2023-07-22T07:23:10;23.10;44.30
18177;DHT22;9213;50.858;3.964;2023-07-22T07:25:39;23.10;44.40
18177;DHT22;9213;50.858;3.964;2023-07-22T07:28:06;23.00;44.40
18177;DHT22;9213;50.858;3.964;2023-07-22T07:30:33;23.00;44.90
18177;DHT22;9213;50.858;3.964;2023-07-22T07:33:00;23.00;45.10
18177;DHT22;9213;50.858;3.964;2023-07-22T07:35:27;23.10;44.80
18177;DHT22;9213;50.858;3.964;2023-07-22T07:37:54;23.10;44.70
18177;DHT22;9213;50.858;3.964;2023-07-22T07:40:21;23.10;44.80
18177;DHT22;9213;50.858;3.964;2023-07-22T07:42:49;23.20;44.90
18177;DHT22;9213;50.858;3.964;2023-07-22T07:45:16;23.30;45.10
18177;DHT22;9213;50.858;3.964;2023-07-22T07:47:43;23.40;45.10
18177;DHT22;9213;50.858;3.964;2023-07-22T07:50:10;23.60;44.30
18177;DHT22;9213;50.858;3.964;2023-07-22T07:52:36;23.70;43.80
18177;DHT22;9213;50.858;3.964;2023-07-22T07:55:05;23.80;43.60
18177;DHT22;9213;50.858;3.964;2023-07-22T07:57:33;23.90;43.80
18177;DHT22;9213;50.858;3.964;2023-07-22T08:00:01;24.10;43.60
18177;DHT22;9213;50.858;3.964;2023-07-22T08:02:28;24.30;43.10
18177;DHT22;9213;50.858;3.964;2023-07-22T08:04:55;24.40;42.20
18177;DHT22;9213;50.858;3.964;2023-07-22T08:07:22;24.50;41.80
18177;DHT22;9213;50.858;3.964;2023-07-22T08:09:49;24.50;41.80
18177;DHT22;9213;50.858;3.964;2023-07-22T08:12:18;24.50;41.80
18177;DHT22;9213;50.858;3.964;2023-07-22T08:14:45;24.50;42.00
18177;DHT22;9213;50.858;3.964;2023-07-22T08:17:13;24.70;42.00
18177;DHT22;9213;50.858;3.964;2023-07-22T08:19:40;24.90;41.90
18177;DHT22;9213;50.858;3.964;2023-07-22T08:22:07;25.20;41.30
18177;DHT22;9213;50.858;3.964;2023-07-22T08:24:34;25.70;40.60
18177;DHT22;9213;50.858;3.964;2023-07-22T08:27:01;26.50;39.30
18177;DHT22;9213;50.858;3.964;2023-07-22T08:29:28;27.20;37.80
18177;DHT22;9213;50.858;3.964;2023-07-22T08:31:55;27.70;36.30
18177;DHT22;9213;50.858;3.964;2023-07-22T08:34:23;28.10;35.90
18177;DHT22;9213;50.858;3.964;2023-07-22T08:36:50;28.60;35.00
18177;DHT22;9213;50.858;3.964;2023-07-22T08:39:17;29.20;34.30
18177;DHT22;9213;50.858;3.964;2023-07-22T08:41:48;29.80;32.60
18177;DHT22;9213;50.858;3.964;2023-07-22T08:44:19;30.40;31.80
18177;DHT22;9213;50.858;3.964;2023-07-22T08:46:47;30.90;30.80
18177;DHT22;9213;50.858;3.964;2023-07-22T08:49:16;31.10;30.20
18177;DHT22;9213;50.858;3.964;2023-07-22T08:51:44;31.10;29.90
18177;DHT22;9213;50.858;3.964;2023-07-22T08:54:13;31.10;30.30
18177;DHT22;9213;50.858;3.964;2023-07-22T08:56:41;31.20;29.90
18177;DHT22;9213;50.858;3.964;2023-07-22T08:59:09;31.30;29.70
18177;DHT22;9213;50.858;3.964;2023-07-22T09:01:37;31.30;29.80
18177;DHT22;9213;50.858;3.964;2023-07-22T09:04:05;31.50;29.40
18177;DHT22;9213;50.858;3.964;2023-07-22T09:06:33;31.90;28.30
18177;DHT22;9213;50.858;3.964;2023-07-22T09:09:02;32.30;27.20
18177;DHT22;9213;50.858;3.964;2023-07-22T09:11:33;32.60;26.80
18177;DHT22;9213;50.858;3.964;2023-07-22T09:14:02;32.90;25.40
18177;DHT22;9213;50.858;3.964;2023-07-22T09:16:30;32.90;25.40
18177;DHT22;9213;50.858;3.964;2023-07-22T09:18:58;32.90;25.00
18177;DHT22;9213;50.858;3.964;2023-07-22T09:21:25;32.80;24.80
18177;DHT22;9213;50.858;3.964;2023-07-22T09:23:53;32.60;25.20
18177;DHT22;9213;50.858;3.964;2023-07-22T09:26:21;32.40;25.50
18177;DHT22;9213;50.858;3.964;2023-07-22T09:28:53;32.30;25.30
18177;DHT22;9213;50.858;3.964;2023-07-22T09:31:21;32.20;25.10
18177;DHT22;9213;50.858;3.964;2023-07-22T09:33:48;32.10;25.20
18177;DHT22;9213;50.858;3.964;2023-07-22T09:36:16;32.20;25.40
18177;DHT22;9213;50.858;3.964;2023-07-22T09:38:43;32.40;24.80
18177;DHT22;9213;50.858;3.964;2023-07-22T09:41:10;32.70;24.10
18177;DHT22;9213;50.858;3.964;2023-07-22T09:43:40;33.10;23.70
18177;DHT22;9213;50.858;3.964;2023-07-22T09:46:08;33.50;22.60
18177;DHT22;9213;50.858;3.964;2023-07-22T09:48:45;33.80;22.00
18177;DHT22;9213;50.858;3.964;2023-07-22T09:51:13;34.20;22.20
18177;DHT22;9213;50.858;3.964;2023-07-22T09:53:47;34.30;21.30
18177;DHT22;9213;50.858;3.964;2023-07-22T09:56:14;34.40;21.30
18177;DHT22;9213;50.858;3.964;2023-07-22T09:58:44;34.30;20.90
18177;DHT22;9213;50.858;3.964;2023-07-22T10:01:12;34.20;20.50
18177;DHT22;9213;50.858;3.964;2023-07-22T10:03:43;34.20;20.90
18177;DHT22;9213;50.858;3.964;2023-07-22T10:06:12;34.30;20.90
18177;DHT22;9213;50.858;3.964;2023-07-22T10:08:43;34.40;20.50
18177;DHT22;9213;50.858;3.964;2023-07-22T10:11:12;34.60;19.80
18177;DHT22;9213;50.858;3.964;2023-07-22T10:13:39;34.70;19.50
18177;DHT22;9213;50.858;3.964;2023-07-22T10:16:09;34.60;19.80
18177;DHT22;9213;50.858;3.964;2023-07-22T10:18:36;34.60;19.90
18177;DHT22;9213;50.858;3.964;2023-07-22T10:21:07;34.60;19.70
18177;DHT22;9213;50.858;3.964;2023-07-22T10:23:35;34.40;19.80
18177;DHT22;9213;50.858;3.964;2023-07-22T10:26:03;34.30;20.90
18177;DHT22;9213;50.858;3.964;2023-07-22T10:28:33;34.10;20.30
18177;DHT22;9213;50.858;3.964;2023-07-22T10:31:01;34.10;20.40
18177;DHT22;9213;50.858;3.964;2023-07-22T10:33:30;34.10;20.00
18177;DHT22;9213;50.858;3.964;2023-07-22T10:36:05;34.00;20.60
18177;DHT22;9213;50.858;3.964;2023-07-22T10:38:32;34.00;20.60
18177;DHT22;9213;50.858;3.964;2023-07-22T10:40:59;33.90;20.10
18177;DHT22;9213;50.858;3.964;2023-07-22T10:43:27;33.80;19.80
18177;DHT22;9213;50.858;3.964;2023-07-22T10:45:57;33.70;20.00
18177;DHT22;9213;50.858;3.964;2023-07-22T10:48:26;33.50;20.80
18177;DHT22;9213;50.858;3.964;2023-07-22T10:51:05;33.40;21.10
18177;DHT22;9213;50.858;3.964;2023-07-22T10:53:32;33.40;21.40
18177;DHT22;9213;50.858;3.964;2023-07-22T10:56:12;33.40;20.80
18177;DHT22;9213;50.858;3.964;2023-07-22T10:58:56;33.40;20.50
18177;DHT22;9213;50.858;3.964;2023-07-22T11:01:30;33.50;21.30
18177;DHT22;9213;50.858;3.964;2023-07-22T11:04:10;33.30;20.50
18177;DHT22;9213;50.858;3.964;2023-07-22T11:06:53;33.40;20.90
18177;DHT22;9213;50.858;3.964;2023-07-22T11:09:39;33.40;20.80
18177;DHT22;9213;50.858;3.964;2023-07-22T11:12:09;33.40;21.00
18177;DHT22;9213;50.858;3.964;2023-07-22T11:14:45;33.30;20.20
18177;DHT22;9213;50.858;3.964;2023-07-22T11:17:12;33.30;20.40
18177;DHT22;9213;50.858;3.964;2023-07-22T11:19:40;33.30;20.40
18177;DHT22;9213;50.858;3.964;2023-07-22T11:22:08;33.40;20.00
18177;DHT22;9213;50.858;3.964;2023-07-22T11:24:36;33.40;20.30
18177;DHT22;9213;50.858;3.964;2023-07-22T11:27:05;33.50;21.00
18177;DHT22;9213;50.858;3.964;2023-07-22T11:29:32;33.50;20.00
18177;DHT22;9213;50.858;3.964;2023-07-22T11:31:59;33.60;19.60
18177;DHT22;9213;50.858;3.964;2023-07-22T11:34:26;33.60;19.70
18177;DHT22;9213;50.858;3.964;2023-07-22T11:36:54;33.60;19.60
18177;DHT22;9213;50.858;3.964;2023-07-22T11:39:24;33.60;19.90
18177;DHT22;9213;50.858;3.964;2023-07-22T11:41:52;33.60;20.00
18177;DHT22;9213;50.858;3.964;2023-07-22T11:44:20;33.70;19.60
18177;DHT22;9213;50.858;3.964;2023-07-22T11:46:51;33.60;19.90
18177;DHT22;9213;50.858;3.964;2023-07-22T11:49:26;33.60;20.10
18177;DHT22;9213;50.858;3.964;2023-07-22T11:51:58;33.70;20.00
18177;DHT22;9213;50.858;3.964;2023-07-22T11:54:27;33.70;20.00
18177;DHT22;9213;50.858;3.964;2023-07-22T11:56:55;33.70;20.10
18177;DHT22;9213;50.858;3.964;2023-07-22T11:59:37;33.70;19.70
18177;DHT22;9213;50.858;3.964;2023-07-22T12:02:04;33.80;20.60
18177;DHT22;9213;50.858;3.964;2023-07-22T12:04:31;33.80;19.80
18177;DHT22;9213;50.858;3.964;2023-07-22T12:06:59;33.80;19.90
18177;DHT22;9213;50.858;3.964;2023-07-22T12:09:27;33.90;19.70
18177;DHT22;9213;50.858;3.964;2023-07-22T12:11:57;33.80;19.40
18177;DHT22;9213;50.858;3.964;2023-07-22T12:14:32;33.80;19.50
18177;DHT22;9213;50.858;3.964;2023-07-22T12:17:02;33.90;19.80
18177;DHT22;9213;50.858;3.964;2023-07-22T12:19:29;34.00;20.00
18177;DHT22;9213;50.858;3.964;2023-07-22T12:21:56;34.00;20.00
18177;DHT22;9213;50.858;3.964;2023-07-22T12:24:24;34.00;19.20
18177;DHT22;9213;50.858;3.964;2023-07-22T12:26:52;34.10;19.80
18177;DHT22;9213;50.858;3.964;2023-07-22T12:29:19;34.10;19.70
18177;DHT22;9213;50.858;3.964;2023-07-22T12:31:47;34.00;19.50
18177;DHT22;9213;50.858;3.964;2023-07-22T12:34:14;33.80;19.20
18177;DHT22;9213;50.858;3.964;2023-07-22T12:36:41;33.60;19.60
18177;DHT22;9213;50.858;3.964;2023-07-22T12:39:08;33.50;19.80
18177;DHT22;9213;50.858;3.964;2023-07-22T12:41:35;33.20;20.80
18177;DHT22;9213;50.858;3.964;2023-07-22T12:44:04;33.10;21.40
18177;DHT22;9213;50.858;3.964;2023-07-22T12:46:30;32.90;21.30
18177;DHT22;9213;50.858;3.964;2023-07-22T12:48:57;32.90;21.50
18177;DHT22;9213;50.858;3.964;2023-07-22T12:51:24;32.80;21.90
18177;DHT22;9213;50.858;3.964;2023-07-22T12:53:51;32.60;22.40
18177;DHT22;9213;50.858;3.964;2023-07-22T12:56:18;32.70;23.00
18177;DHT22;9213;50.858;3.964;2023-07-22T12:58:45;32.60;23.80
18177;DHT22;9213;50.858;3.964;2023-07-22T13:01:13;32.60;23.60
18177;DHT22;9213;50.858;3.964;2023-07-22T13:03:40;32.70;23.60
18177;DHT22;9213;50.858;3.964;2023-07-22T13:06:07;32.70;23.70
18177;DHT22;9213;50.858;3.964;2023-07-22T13:08:34;32.80;23.90
18177;DHT22;9213;50.858;3.964;2023-07-22T13:11:01;32.70;23.60
18177;DHT22;9213;50.858;3.964;2023-07-22T13:13:29;32.60;23.80
18177;DHT22;9213;50.858;3.964;2023-07-22T13:15:56;32.60;24.30
18177;DHT22;9213;50.858;3.964;2023-07-22T13:18:24;32.50;23.60
18177;DHT22;9213;50.858;3.964;2023-07-22T13:20:51;32.50;24.20
18177;DHT22;9213;50.858;3.964;2023-07-22T13:23:18;32.50;24.30
18177;DHT22;9213;50.858;3.964;2023-07-22T13:25:45;32.40;23.70
18177;DHT22;9213;50.858;3.964;2023-07-22T13:28:11;32.40;24.10
18177;DHT22;9213;50.858;3.964;2023-07-22T13:30:38;32.20;24.30
18177;DHT22;9213;50.858;3.964;2023-07-22T13:33:05;31.90;25.00
18177;DHT22;9213;50.858;3.964;2023-07-22T13:35:33;31.70;25.20
18177;DHT22;9213;50.858;3.964;2023-07-22T13:38:00;31.50;25.80
18177;DHT22;9213;50.858;3.964;2023-07-22T13:40:27;31.30;25.90
18177;DHT22;9213;50.858;3.964;2023-07-22T13:42:54;31.10;25.20
18177;DHT22;9213;50.858;3.964;2023-07-22T13:45:21;31.00;25.50
18177;DHT22;9213;50.858;3.964;2023-07-22T13:47:48;30.80;25.30
18177;DHT22;9213;50.858;3.964;2023-07-22T13:50:15;30.70;25.10
18177;DHT22;9213;50.858;3.964;2023-07-22T13:52:43;30.50;25.60
18177;DHT22;9213;50.858;3.964;2023-07-22T13:55:10;30.40;25.70
18177;DHT22;9213;50.858;3.964;2023-07-22T13:57:37;30.30;26.10
18177;DHT22;9213;50.858;3.964;2023-07-22T14:00:05;30.20;26.30
18177;DHT22;9213;50.858;3.964;2023-07-22T14:02:34;30.10;26.40
18177;DHT22;9213;50.858;3.964;2023-07-22T14:05:01;30.00;26.90
18177;DHT22;9213;50.858;3.964;2023-07-22T14:07:28;30.00;26.80
18177;DHT22;9213;50.858;3.964;2023-07-22T14:09:57;30.10;27.10
18177;DHT22;9213;50.858;3.964;2023-07-22T14:12:23;30.20;26.70
18177;DHT22;9213;50.858;3.964;2023-07-22T14:14:50;30.20;26.80
18177;DHT22;9213;50.858;3.964;2023-07-22T14:17:17;30.30;26.20
18177;DHT22;9213;50.858;3.964;2023-07-22T14:19:44;30.20;26.30
18177;DHT22;9213;50.858;3.964;2023-07-22T14:22:11;30.20;26.30
18177;DHT22;9213;50.858;3.964;2023-07-22T14:24:38;30.20;26.60
18177;DHT22;9213;50.858;3.964;2023-07-22T14:27:07;30.30;26.80
18177;DHT22;9213;50.858;3.964;2023-07-22T14:29:33;30.50;26.30
18177;DHT22;9213;50.858;3.964;2023-07-22T14:32:00;30.60;25.70
18177;DHT22;9213;50.858;3.964;2023-07-22T14:34:28;30.80;25.30
18177;DHT22;9213;50.858;3.964;2023-07-22T14:36:55;31.00;25.30
18177;DHT22;9213;50.858;3.964;2023-07-22T14:39:22;31.10;25.20
18177;DHT22;9213;50.858;3.964;2023-07-22T14:41:49;31.20;25.10
18177;DHT22;9213;50.858;3.964;2023-07-22T14:44:18;31.20;25.30
18177;DHT22;9213;50.858;3.964;2023-07-22T14:46:45;31.20;25.20
18177;DHT22;9213;50.858;3.964;2023-07-22T14:49:12;31.20;24.90
18177;DHT22;9213;50.858;3.964;2023-07-22T14:51:39;31.30;24.90
18177;DHT22;9213;50.858;3.964;2023-07-22T14:54:06;31.30;25.40
18177;DHT22;9213;50.858;3.964;2023-07-22T14:56:34;31.40;24.90
18177;DHT22;9213;50.858;3.964;2023-07-22T14:59:01;31.40;24.30
18177;DHT22;9213;50.858;3.964;2023-07-22T15:01:37;31.40;24.80
18177;DHT22;9213;50.858;3.964;2023-07-22T15:04:05;31.40;25.30
18177;DHT22;9213;50.858;3.964;2023-07-22T15:06:32;31.30;25.00
18177;DHT22;9213;50.858;3.964;2023-07-22T15:09:00;31.20;24.80
18177;DHT22;9213;50.858;3.964;2023-07-22T15:11:27;31.20;25.00
18177;DHT22;9213;50.858;3.964;2023-07-22T15:13:54;31.10;24.60
18177;DHT22;9213;50.858;3.964;2023-07-22T15:16:21;31.00;24.20
18177;DHT22;9213;50.858;3.964;2023-07-22T15:18:50;30.80;24.00
18177;DHT22;9213;50.858;3.964;2023-07-22T15:21:16;30.60;24.60
18177;DHT22;9213;50.858;3.964;2023-07-22T15:23:43;30.50;24.30
18177;DHT22;9213;50.858;3.964;2023-07-22T15:26:10;30.30;24.70
18177;DHT22;9213;50.858;3.964;2023-07-22T15:28:37;30.20;25.00
18177;DHT22;9213;50.858;3.964;2023-07-22T15:31:05;30.10;24.90
18177;DHT22;9213;50.858;3.964;2023-07-22T15:33:33;30.00;25.40
18177;DHT22;9213;50.858;3.964;2023-07-22T15:36:01;29.80;25.40
18177;DHT22;9213;50.858;3.964;2023-07-22T15:38:28;29.80;25.20
18177;DHT22;9213;50.858;3.964;2023-07-22T15:40:57;29.60;25.70
18177;DHT22;9213;50.858;3.964;2023-07-22T15:43:24;29.50;25.90
18177;DHT22;9213;50.858;3.964;2023-07-22T15:45:50;29.40;25.80
18177;DHT22;9213;50.858;3.964;2023-07-22T15:48:17;29.30;26.20